Time;durP1;ratioP1;P1;durP2;ratioP2;P2;SDS_P1;SDS_P2;PMS_P1;PMS_P2;Temp;Humidity;BMP_temperature;BMP_pressure;BME280_temperature;BME280_humidity;BME280_pressure;Samples;Min_cycle;Max_cycle;Signal;HPM_P1;HPM_P2
2022/11/13 05:00:26;;;;;;;19.05;13.63;;;6.30;99.90;;;;;;6005492;22;20350;-68
2022/11/13 05:02:51;;;;;;;22.40;12.43;;;6.20;99.90;;;;;;4996079;28;20039;-68
2022/11/13 05:05:16;;;;;;;17.50;12.43;;;6.20;99.90;;;;;;4978180;28;20032;-69
2022/11/13 05:07:42;;;;;;;21.00;13.27;;;6.10;99.90;;;;;;4996354;28;20096;-69
2022/11/13 05:10:08;;;;;;;19.60;12.43;;;6.20;99.90;;;;;;4996427;28;20031;-69
2022/11/13 05:12:33;;;;;;;21.15;13.38;;;6.10;99.90;;;;;;4996346;28;20034;-69
2022/11/13 05:14:59;;;;;;;18.93;13.70;;;6.10;99.90;;;;;;4979056;28;20111;-67
2022/11/13 05:17:24;;;;;;;18.43;12.50;;;6.00;99.90;;;;;;4996485;28;20041;-67
2022/11/13 05:19:50;;;;;;;18.63;12.90;;;6.00;99.90;;;;;;4996198;28;20023;-67
2022/11/13 05:22:15;;;;;;;23.17;14.23;;;5.90;99.90;;;;;;4978777;28;20030;-67
2022/11/13 05:24:41;;;;;;;19.83;13.37;;;5.90;99.90;;;;;;4996131;28;20031;-68
2022/11/13 05:27:06;;;;;;;22.83;13.80;;;5.90;99.90;;;;;;4996358;28;20372;-67
2022/11/13 05:29:32;;;;;;;21.37;13.73;;;5.80;99.90;;;;;;4996281;28;20042;-68
2022/11/13 05:31:57;;;;;;;19.93;13.20;;;5.80;99.90;;;;;;4996035;28;20107;-67
2022/11/13 05:34:23;;;;;;;18.50;12.83;;;5.80;99.90;;;;;;5005232;28;20045;-68
2022/11/13 05:36:48;;;;;;;17.73;12.30;;;5.80;99.90;;;;;;5006993;28;20030;-68
2022/11/13 05:39:14;;;;;;;20.03;12.80;;;5.90;99.90;;;;;;4996413;28;20041;-68
2022/11/13 05:41:40;;;;;;;19.03;12.37;;;5.80;99.90;;;;;;4996349;28;20130;-69
2022/11/13 05:44:05;;;;;;;19.55;13.27;;;5.80;99.90;;;;;;4996370;28;20026;-68
2022/11/13 05:46:31;;;;;;;18.50;13.00;;;5.80;99.90;;;;;;4996417;28;20034;-66
2022/11/13 05:48:59;;;;;;;24.10;12.20;;;5.80;99.90;;;;;;4994446;28;20026;-67
2022/11/13 05:51:31;;;;;;;19.95;12.98;;;5.70;99.90;;;;;;4995861;28;20434;-68
2022/11/13 05:53:58;;;;;;;16.95;11.77;;;5.80;99.90;;;;;;4996205;28;20177;-68
2022/11/13 05:56:32;;;;;;;19.42;13.50;;;5.80;99.90;;;;;;4978496;28;20034;-68
2022/11/13 05:59:00;;;;;;;22.17;12.38;;;5.70;99.90;;;;;;4995509;28;20027;-68
2022/11/13 06:01:28;;;;;;;21.40;13.57;;;5.70;99.90;;;;;;4996584;28;20048;-67
2022/11/13 06:03:58;;;;;;;18.92;12.23;;;5.60;99.90;;;;;;4996562;28;20380;-67
2022/11/13 06:06:25;;;;;;;21.48;12.90;;;5.60;99.90;;;;;;4978961;28;20490;-68
2022/11/13 06:08:52;;;;;;;22.00;13.48;;;5.60;99.90;;;;;;4978472;28;20033;-71
2022/11/13 06:11:22;;;;;;;20.02;13.35;;;5.70;99.90;;;;;;4995605;28;20440;-70
2022/11/13 06:13:50;;;;;;;18.83;12.65;;;5.70;99.90;;;;;;4996417;28;20027;-69
2022/11/13 06:16:18;;;;;;;17.38;11.93;;;5.70;99.90;;;;;;4978562;28;20022;-70
2022/11/13 06:18:45;;;;;;;16.02;11.85;;;5.70;99.90;;;;;;4978320;28;20447;-69
2022/11/13 06:21:14;;;;;;;17.48;11.95;;;5.70;99.90;;;;;;4995989;28;20041;-70
2022/11/13 06:23:40;;;;;;;20.65;12.77;;;5.70;99.90;;;;;;4995198;28;20452;-70
2022/11/13 06:26:08;;;;;;;17.73;11.95;;;5.70;99.90;;;;;;4995168;28;20058;-70
2022/11/13 06:28:34;;;;;;;15.68;10.95;;;5.70;99.90;;;;;;4977742;28;20034;-70
2022/11/13 06:31:04;;;;;;;17.20;11.70;;;5.80;99.90;;;;;;4995340;28;20022;-70
2022/11/13 06:33:31;;;;;;;19.65;12.98;;;5.80;99.90;;;;;;4997413;28;20506;-69
2022/11/13 06:35:56;;;;;;;20.60;12.85;;;5.80;99.90;;;;;;5014456;28;20038;-70
2022/11/13 06:38:22;;;;;;;19.90;13.17;;;5.70;99.90;;;;;;5015218;28;20045;-70
2022/11/13 06:40:47;;;;;;;21.10;12.30;;;5.80;99.90;;;;;;4996998;28;20026;-69
2022/11/13 06:43:13;;;;;;;20.80;12.57;;;5.70;99.90;;;;;;5015117;28;20057;-70
2022/11/13 06:45:38;;;;;;;18.17;12.07;;;5.70;99.90;;;;;;4996965;28;20116;-70
2022/11/13 06:48:04;;;;;;;21.10;12.53;;;5.80;99.90;;;;;;5014460;28;20040;-70
2022/11/13 06:50:30;;;;;;;20.55;12.45;;;5.80;99.90;;;;;;5014418;28;20025;-69
2022/11/13 06:52:56;;;;;;;18.60;11.97;;;5.80;99.90;;;;;;5014781;28;20437;-69
2022/11/13 06:55:21;;;;;;;18.25;11.73;;;5.70;99.90;;;;;;5014512;28;20060;-69
2022/11/13 06:57:47;;;;;;;18.93;12.50;;;5.70;99.90;;;;;;5014735;28;20033;-70
2022/11/13 07:00:13;;;;;;;18.30;12.53;;;5.70;99.90;;;;;;4996921;28;20026;-68
2022/11/13 07:02:39;;;;;;;19.52;12.38;;;5.80;99.90;;;;;;4992797;28;20056;-69
2022/11/13 07:05:08;;;;;;;17.43;11.27;;;5.70;99.90;;;;;;5008718;28;20470;-70
2022/11/13 07:07:33;;;;;;;19.02;11.77;;;5.80;99.90;;;;;;5013330;28;20087;-69
2022/11/13 07:09:59;;;;;;;17.93;12.17;;;5.80;99.90;;;;;;4996887;28;20462;-68
2022/11/13 07:12:27;;;;;;;16.47;11.53;;;5.80;99.90;;;;;;4996341;28;20022;-68
2022/11/13 07:14:53;;;;;;;18.58;12.18;;;5.80;99.90;;;;;;5014052;28;20479;-68
2022/11/13 07:17:18;;;;;;;16.67;11.00;;;5.80;99.90;;;;;;5014097;28;20030;-68
2022/11/13 07:19:44;;;;;;;21.13;11.80;;;5.80;99.90;;;;;;5013992;28;20033;-67
2022/11/13 07:22:09;;;;;;;16.27;11.90;;;5.70;99.90;;;;;;5013414;28;20030;-68
2022/11/13 07:24:35;;;;;;;17.70;11.67;;;5.70;99.90;;;;;;4995781;28;20022;-69
2022/11/13 07:27:00;;;;;;;17.77;11.80;;;5.80;99.90;;;;;;5013719;28;20037;-68
2022/11/13 07:29:26;;;;;;;16.10;11.50;;;5.80;99.90;;;;;;5015604;28;20030;-68
2022/11/13 07:31:52;;;;;;;16.93;11.73;;;5.70;99.90;;;;;;5016071;28;20475;-68
2022/11/13 07:34:17;;;;;;;14.88;10.23;;;5.70;99.90;;;;;;5006713;28;20097;-67
2022/11/13 07:36:43;;;;;;;18.57;12.07;;;5.70;99.90;;;;;;4977344;28;20050;-68
2022/11/13 07:39:09;;;;;;;16.20;11.50;;;5.70;99.90;;;;;;4995218;28;20109;-67
2022/11/13 07:41:35;;;;;;;17.38;12.57;;;5.80;99.90;;;;;;4993758;28;20033;-68
2022/11/13 07:44:00;;;;;;;15.90;11.37;;;5.80;99.90;;;;;;4994140;28;20022;-68
2022/11/13 07:46:26;;;;;;;15.83;10.77;;;5.80;99.90;;;;;;4994018;28;20490;-68
2022/11/13 07:48:51;;;;;;;15.97;10.80;;;5.80;99.90;;;;;;4993940;28;20041;-68
2022/11/13 07:51:17;;;;;;;16.67;11.83;;;5.70;99.90;;;;;;4993920;28;20045;-68
2022/11/13 07:53:42;;;;;;;16.97;11.30;;;5.60;99.90;;;;;;4976577;28;20031;-68
2022/11/13 07:56:08;;;;;;;15.57;10.80;;;5.70;99.90;;;;;;4994493;28;20035;-67
2022/11/13 07:58:33;;;;;;;17.27;10.53;;;5.70;99.90;;;;;;4976499;28;20161;-68
2022/11/13 08:01:04;;;;;;;14.17;10.43;;;5.70;99.90;;;;;;4994838;28;20038;-67
2022/11/13 08:03:30;;;;;;;17.30;11.63;;;5.90;99.90;;;;;;4968797;28;20118;-68
2022/11/13 08:06:01;;;;;;;14.60;10.82;;;6.00;99.90;;;;;;4958831;28;20023;-68
2022/11/13 08:08:26;;;;;;;14.27;10.10;;;6.10;99.90;;;;;;4961285;28;20026;-68
2022/11/13 08:10:52;;;;;;;13.07;9.20;;;6.10;99.90;;;;;;4994973;28;20085;-67
2022/11/13 08:13:17;;;;;;;13.37;9.97;;;6.20;99.90;;;;;;4995179;28;20081;-68
2022/11/13 08:15:43;;;;;;;18.17;11.17;;;6.10;99.90;;;;;;4994549;28;20484;-67
2022/11/13 08:18:09;;;;;;;16.00;10.50;;;6.20;99.90;;;;;;4993843;28;20026;-67
2022/11/13 08:20:34;;;;;;;12.17;8.63;;;6.20;99.90;;;;;;4992703;28;20345;-68
2022/11/13 08:23:01;;;;;;;14.30;9.57;;;6.00;99.90;;;;;;4993669;28;20027;-68
2022/11/13 08:25:28;;;;;;;14.13;10.65;;;5.90;99.90;;;;;;4975595;28;20027;-67
2022/11/13 08:27:54;;;;;;;16.48;9.98;;;5.90;99.90;;;;;;4972995;28;20058;-67
2022/11/13 08:30:20;;;;;;;15.55;11.30;;;6.00;99.90;;;;;;4983265;28;20222;-68
2022/11/13 08:32:47;;;;;;;14.57;9.98;;;6.00;99.90;;;;;;4985009;28;20034;-67
2022/11/13 08:35:12;;;;;;;;;;;6.10;99.90;;;;;;4982139;28;20038;-68
2022/11/13 08:37:38;;;;;;;14.80;9.60;;;6.20;99.90;;;;;;4998661;28;20004;-67
2022/11/13 08:40:04;;;;;;;12.80;9.33;;;6.20;99.90;;;;;;4980804;28;20081;-68
2022/11/13 08:42:30;;;;;;;11.60;8.70;;;6.30;99.90;;;;;;4980642;28;20025;-68
2022/11/13 08:44:55;;;;;;;12.67;9.20;;;6.20;99.90;;;;;;4997854;28;20034;-68
2022/11/13 08:47:21;;;;;;;15.27;9.63;;;6.10;99.90;;;;;;4975444;28;20042;-67
2022/11/13 08:49:46;;;;;;;14.48;8.90;;;6.20;99.90;;;;;;4979687;28;20027;-67
2022/11/13 08:52:13;;;;;;;12.40;8.60;;;6.20;99.90;;;;;;4977513;28;20391;-68
2022/11/13 08:54:39;;;;;;;;;;;6.10;99.90;;;;;;4977903;28;20034;-67
2022/11/13 08:57:04;;;;;;;13.75;9.20;;;6.10;99.90;;;;;;4977609;28;19914;-68
2022/11/13 08:59:30;;;;;;;11.93;8.80;;;6.10;99.90;;;;;;4971339;28;20442;-68
2022/11/13 09:01:58;;;;;;;12.27;9.10;;;6.20;99.90;;;;;;4996118;28;20113;-67
2022/11/13 09:04:24;;;;;;;12.23;9.20;;;6.30;99.90;;;;;;4988027;28;20023;-67
2022/11/13 09:06:51;;;;;;;11.30;9.18;;;6.50;99.90;;;;;;4976317;28;20031;-68
2022/11/13 09:09:17;;;;;;;10.00;8.30;;;6.60;99.90;;;;;;4993535;28;20420;-67
2022/11/13 09:11:42;;;;;;;13.38;8.73;;;6.60;99.90;;;;;;5004261;28;20030;-66
2022/11/13 09:14:08;;;;;;;13.97;10.07;;;6.70;99.90;;;;;;4979950;28;20035;-67
2022/11/13 09:16:33;;;;;;;13.53;9.87;;;6.80;99.90;;;;;;4959693;28;20077;-67
2022/11/13 09:18:59;;;;;;;9.87;8.27;;;7.00;99.90;;;;;;4983909;28;20130;-67
2022/11/13 09:21:25;;;;;;;10.60;7.60;;;7.10;99.90;;;;;;4995431;28;20026;-67
2022/11/13 09:23:50;;;;;;;11.87;9.30;;;7.00;99.90;;;;;;4993712;28;20027;-69
2022/11/13 09:26:17;;;;;;;10.67;8.27;;;6.70;99.90;;;;;;4965777;28;20022;-68
2022/11/13 09:28:42;;;;;;;10.98;8.25;;;6.50;99.90;;;;;;4985864;28;20325;-68
2022/11/13 09:31:08;;;;;;;18.60;9.93;;;6.30;99.90;;;;;;4978714;28;20036;-65
2022/11/13 09:33:34;;;;;;;10.67;9.03;;;6.50;99.90;;;;;;4995979;28;20026;-66
2022/11/13 09:36:00;;;;;;;11.32;8.25;;;7.00;99.90;;;;;;4995922;28;20122;-69
2022/11/13 09:38:25;;;;;;;10.17;7.93;;;7.50;99.90;;;;;;4996258;28;20105;-69
2022/11/13 09:40:54;;;;;;;9.13;7.40;;;8.00;99.90;;;;;;4991972;28;20096;-69
2022/11/13 09:43:34;;;;;;;12.88;7.75;;;8.40;99.90;;;;;;4985164;28;20042;-68
2022/11/13 09:46:10;;;;;;;12.98;9.23;;;9.00;99.90;;;;;;4976504;28;20019;-69
2022/11/13 09:48:41;;;;;;;9.90;6.68;;;9.60;99.90;;;;;;4969583;28;20037;-68
2022/11/13 09:51:23;;;;;;;8.25;6.28;;;10.00;99.90;;;;;;4979114;28;20030;-68
2022/11/13 09:53:48;;;;;;;8.63;6.75;;;9.90;99.90;;;;;;4996618;28;20027;-68
2022/11/13 09:56:24;;;;;;;7.60;6.43;;;9.70;99.90;;;;;;4996039;28;20033;-69
2022/11/13 09:59:22;;;;;;;9.23;6.10;;;9.60;99.90;;;;;;4996149;28;20258;-69
2022/11/13 10:01:56;;;;;;;7.87;6.27;;;9.30;99.90;;;;;;4995756;28;20018;-68
2022/11/13 10:05:05;;;;;;;7.50;5.80;;;9.40;99.90;;;;;;4995813;28;20374;-68
2022/11/13 10:07:43;;;;;;;7.93;5.82;;;9.50;99.90;;;;;;4951352;28;20037;-69
2022/11/13 10:10:39;;;;;;;8.13;6.47;;;9.50;99.90;;;;;;4995114;28;20038;-68
2022/11/13 10:13:13;;;;;;;6.45;5.70;;;9.40;99.90;;;;;;4995545;28;20340;-68
2022/11/13 10:15:41;;;;;;;8.68;6.30;;;9.40;99.90;;;;;;4995799;28;20029;-67
2022/11/13 10:18:16;;;;;;;9.10;6.68;;;9.20;99.90;;;;;;4995070;28;20022;-68
2022/11/13 10:20:50;;;;;;;8.02;6.30;;;9.20;99.90;;;;;;4995317;28;20029;-67
2022/11/13 10:23:28;;;;;;;8.52;6.65;;;9.30;99.90;;;;;;4995163;28;20459;-67
2022/11/13 10:26:14;;;;;;;8.00;6.20;;;9.50;99.90;;;;;;4995492;28;20555;-68
2022/11/13 10:28:40;;;;;;;8.13;6.80;;;9.40;99.90;;;;;;4977472;28;20383;-67
2022/11/13 10:31:09;;;;;;;10.70;7.05;;;9.40;99.90;;;;;;4994989;28;20045;-67
2022/11/13 10:33:35;;;;;;;10.57;7.28;;;9.50;99.90;;;;;;4998202;28;20026;-67
2022/11/13 10:36:39;;;;;;;9.97;7.60;;;9.50;99.90;;;;;;5014301;28;20478;-67
2022/11/13 10:39:07;;;;;;;8.82;6.60;;;9.30;99.90;;;;;;4984050;28;20402;-67
2022/11/13 10:41:51;;;;;;;7.75;6.32;;;9.40;99.90;;;;;;5014895;28;20076;-68
2022/11/13 10:44:34;;;;;;;9.45;7.03;;;9.40;99.90;;;;;;4985849;28;20022;-67
2022/11/13 10:47:13;;;;;;;8.05;6.53;;;9.70;99.90;;;;;;4995234;28;20033;-71
2022/11/13 10:49:39;;;;;;;7.30;6.10;;;9.70;99.90;;;;;;4995039;28;20476;-71
2022/11/13 10:52:22;;;;;;;7.83;6.50;;;9.70;99.90;;;;;;4990952;28;20117;-73
2022/11/13 10:54:48;;;;;;;7.40;6.18;;;9.60;99.90;;;;;;4995959;28;20487;-73
2022/11/13 10:57:29;;;;;;;9.00;7.20;;;9.40;99.90;;;;;;4976548;28;20041;-71
2022/11/13 10:59:55;;;;;;;8.85;6.72;;;9.20;99.90;;;;;;4995490;28;20026;-76
2022/11/13 11:02:23;;;;;;;8.75;6.75;;;9.10;99.90;;;;;;4977258;28;20089;-75
2022/11/13 11:04:48;;;;;;;8.85;6.32;;;9.10;99.90;;;;;;4989526;28;20069;-74
2022/11/13 11:07:17;;;;;;;8.35;6.72;;;9.10;99.90;;;;;;4998232;28;20034;-74
2022/11/13 11:09:47;;;;;;;9.65;6.88;;;9.20;99.90;;;;;;4978540;28;20126;-73
2022/11/13 11:12:18;;;;;;;10.20;6.93;;;9.20;99.90;;;;;;4965838;28;20026;-74
2022/11/13 11:15:00;;;;;;;10.75;6.85;;;9.10;99.90;;;;;;4976904;28;20023;-68
2022/11/13 11:17:49;;;;;;;9.52;6.85;;;9.20;99.90;;;;;;4976173;28;20555;-70
2022/11/13 11:20:39;;;;;;;9.35;7.63;;;9.20;99.90;;;;;;4974982;28;20065;-68
2022/11/13 11:23:27;;;;;;;7.70;6.35;;;9.30;99.90;;;;;;4957961;28;20526;-73
2022/11/13 11:26:13;;;;;;;9.15;7.07;;;9.30;99.90;;;;;;4957986;28;20031;-72
2022/11/13 11:29:07;;;;;;;13.68;7.78;;;9.30;99.90;;;;;;4981859;28;20040;-70
2022/11/13 11:31:59;;;;;;;9.75;7.30;;;9.40;99.90;;;;;;4994262;28;20547;-72
2022/11/13 11:35:03;;;;;;;8.63;6.95;;;9.50;99.90;;;;;;4994676;28;20030;-72
2022/11/13 11:37:49;;;;;;;9.82;6.68;;;9.40;99.90;;;;;;4994898;28;20030;-70
2022/11/13 11:40:18;;;;;;;10.73;7.68;;;9.50;99.90;;;;;;4977178;28;20022;-69
2022/11/13 11:42:52;;;;;;;9.23;7.22;;;9.60;99.90;;;;;;4994317;28;20025;-70
2022/11/13 11:45:40;;;;;;;9.90;7.10;;;9.70;99.90;;;;;;4994329;28;20019;-71
2022/11/13 11:48:24;;;;;;;10.68;7.88;;;9.70;99.90;;;;;;4994280;28;20130;-70
2022/11/13 11:51:07;;;;;;;11.10;7.53;;;9.90;99.90;;;;;;4994618;28;20041;-70
2022/11/13 11:53:54;;;;;;;12.10;7.32;;;9.90;99.90;;;;;;4976972;28;20030;-66
2022/11/13 11:56:44;;;;;;;8.95;6.68;;;10.10;99.90;;;;;;4976888;28;20031;-66
2022/11/13 11:59:17;;;;;;;10.00;6.78;;;10.10;99.90;;;;;;4994257;28;20023;-68
2022/11/13 12:01:59;;;;;;;12.98;7.72;;;10.10;99.90;;;;;;4994367;28;20557;-73
2022/11/13 12:04:53;;;;;;;11.77;7.25;;;10.20;99.90;;;;;;4977367;28;20030;-72
2022/11/13 12:07:45;;;;;;;8.95;6.15;;;10.30;99.90;;;;;;4994610;28;20081;-72
2022/11/13 12:10:24;;;;;;;8.60;6.63;;;10.30;99.90;;;;;;4997641;28;20026;-70
2022/11/13 12:13:16;;;;;;;10.35;7.00;;;10.40;99.90;;;;;;4998260;28;20389;-69
2022/11/13 12:16:20;;;;;;;7.60;6.18;;;10.50;99.90;;;;;;4997852;28;20030;-69
2022/11/13 12:19:06;;;;;;;7.90;5.85;;;10.50;99.90;;;;;;4997663;28;20467;-73
2022/11/13 12:21:55;;;;;;;9.73;6.22;;;10.60;99.90;;;;;;4979866;28;20128;-72
2022/11/13 12:24:58;;;;;;;8.10;6.75;;;10.60;99.90;;;;;;4997753;28;20034;-68
2022/11/13 12:27:52;;;;;;;8.43;5.82;;;10.70;99.90;;;;;;4980367;28;20033;-67
2022/11/13 12:30:46;;;;;;;8.18;6.25;;;10.90;99.90;;;;;;4980495;28;20019;-75
2022/11/13 12:33:32;;;;;;;10.10;7.25;;;10.90;99.90;;;;;;4990373;28;20463;-75
2022/11/13 12:35:59;;;;;;;7.53;5.70;;;11.00;99.90;;;;;;4960689;28;20091;-72
2022/11/13 12:38:30;;;;;;;7.78;6.03;;;11.00;99.90;;;;;;4976463;28;20026;-72
2022/11/13 12:41:15;;;;;;;7.80;5.82;;;11.00;99.90;;;;;;4960492;28;20078;-73
2022/11/13 12:43:41;;;;;;;9.40;5.28;;;11.10;99.90;;;;;;4960634;28;20118;-68
2022/11/13 12:46:11;;;;;;;6.23;5.37;;;11.10;99.90;;;;;;4977864;28;20075;-67
2022/11/13 12:48:38;;;;;;;9.25;6.88;;;11.20;99.90;;;;;;4960578;28;20030;-73
2022/11/13 12:51:09;;;;;;;11.68;7.90;;;11.30;99.90;;;;;;4960280;28;20019;-71
2022/11/13 12:53:53;;;;;;;14.88;9.45;;;11.30;99.90;;;;;;4977980;28;20074;-71
2022/11/13 12:56:27;;;;;;;14.27;10.07;;;11.30;99.90;;;;;;4979447;28;20495;-70
2022/11/13 12:59:05;;;;;;;9.77;6.32;;;11.20;99.90;;;;;;4960481;28;20031;-71
2022/11/13 13:01:34;;;;;;;9.05;5.53;;;11.30;99.90;;;;;;4977295;28;20110;-71
2022/11/13 13:04:21;;;;;;;8.73;6.10;;;11.30;99.90;;;;;;4969431;28;20018;-71
2022/11/13 13:07:17;;;;;;;7.57;5.28;;;11.30;99.90;;;;;;4998597;28;20064;-70
2022/11/13 13:10:05;;;;;;;7.95;5.55;;;11.40;99.90;;;;;;4999012;28;20029;-70
2022/11/13 13:12:37;;;;;;;6.45;5.25;;;11.40;99.90;;;;;;4998594;28;20129;-71
2022/11/13 13:15:51;;;;;;;8.73;5.47;;;11.40;99.90;;;;;;4998459;28;20037;-71
2022/11/13 13:18:16;;;;;;;7.80;5.68;;;11.40;99.90;;;;;;4985457;28;20091;-71
2022/11/13 13:21:10;;;;;;;7.47;4.97;;;11.40;99.90;;;;;;5015049;28;20374;-70
2022/11/13 13:23:41;;;;;;;7.35;5.57;;;11.40;99.90;;;;;;4999205;28;20029;-70
2022/11/13 13:26:25;;;;;;;9.32;6.30;;;11.40;99.90;;;;;;5016421;28;20049;-70
2022/11/13 13:29:17;;;;;;;7.75;5.57;;;11.30;99.90;;;;;;5016229;28;20030;-71
2022/11/13 13:32:05;;;;;;;7.70;5.32;;;11.30;99.90;;;;;;4998779;28;20048;-70
2022/11/13 13:35:08;;;;;;;7.68;5.57;;;11.30;99.90;;;;;;5008033;28;20026;-70
2022/11/13 13:37:53;;;;;;;7.45;5.80;;;11.40;99.90;;;;;;4951924;28;20042;-69
2022/11/13 13:40:19;;;;;;;7.68;5.40;;;11.40;99.90;;;;;;4996305;28;20034;-71
2022/11/13 13:42:52;;;;;;;8.53;6.43;;;11.40;99.90;;;;;;4996004;28;20030;-70
2022/11/13 13:45:26;;;;;;;9.90;5.70;;;11.50;99.90;;;;;;4979357;28;20336;-71
2022/11/13 13:47:56;;;;;;;10.30;6.25;;;11.50;99.90;;;;;;4979822;28;20602;-71
2022/11/13 13:50:26;;;;;;;14.45;10.50;;;11.50;99.90;;;;;;4996097;28;20154;-71
2022/11/13 13:52:53;;;;;;;8.55;5.72;;;11.50;99.90;;;;;;4995663;28;20023;-71
2022/11/13 13:55:34;;;;;;;8.63;5.60;;;11.50;99.90;;;;;;4995702;28;20089;-70
2022/11/13 13:58:05;;;;;;;7.30;5.22;;;11.50;99.90;;;;;;4978263;28;20023;-73
2022/11/13 14:00:32;;;;;;;7.25;5.47;;;11.50;99.90;;;;;;4995607;28;20033;-71
2022/11/13 14:02:57;;;;;;;8.65;5.95;;;11.50;99.90;;;;;;4978320;28;20034;-71
2022/11/13 14:05:35;;;;;;;7.50;5.40;;;11.50;99.90;;;;;;4963603;28;20499;-70
2022/11/13 14:08:06;;;;;;;9.05;5.63;;;11.50;99.90;;;;;;4976205;28;20114;-71
2022/11/13 14:10:34;;;;;;;7.22;5.45;;;11.50;99.90;;;;;;4976406;28;20019;-71
2022/11/13 14:13:01;;;;;;;7.57;5.50;;;11.50;99.90;;;;;;4985691;28;20033;-70
2022/11/13 14:15:32;;;;;;;9.45;5.30;;;11.50;99.90;;;;;;4978185;28;20446;-71
2022/11/13 14:18:06;;;;;;;8.18;5.63;;;11.50;99.90;;;;;;4995556;28;20060;-68
2022/11/13 14:20:45;;;;;;;8.82;6.05;;;11.40;99.90;;;;;;4988183;28;20026;-68
2022/11/13 14:23:17;;;;;;;9.15;5.43;;;11.40;99.90;;;;;;4976371;28;20023;-68
2022/11/13 14:25:44;;;;;;;7.65;5.90;;;11.40;99.90;;;;;;4976109;28;20030;-67
2022/11/13 14:28:20;;;;;;;8.02;5.60;;;11.40;99.90;;;;;;4976206;28;20027;-67
2022/11/13 14:30:59;;;;;;;8.77;6.00;;;11.30;99.90;;;;;;4958369;28;20030;-67
2022/11/13 14:33:31;;;;;;;10.23;5.97;;;11.30;99.90;;;;;;4958739;28;20418;-72
2022/11/13 14:35:58;;;;;;;8.27;6.07;;;11.30;99.90;;;;;;4975672;28;20133;-72
2022/11/13 14:38:27;;;;;;;11.32;5.93;;;11.40;99.90;;;;;;4976216;28;20487;-74
2022/11/13 14:40:53;;;;;;;8.35;5.85;;;11.40;99.90;;;;;;4958210;28;20031;-69
2022/11/13 14:43:25;;;;;;;10.10;5.97;;;11.40;99.90;;;;;;4975781;28;20070;-70
2022/11/13 14:46:03;;;;;;;11.18;6.32;;;11.30;99.90;;;;;;4975730;28;20125;-68
2022/11/13 14:48:31;;;;;;;8.93;5.97;;;11.30;99.90;;;;;;4975664;28;20030;-71
2022/11/13 14:50:58;;;;;;;9.57;5.88;;;11.20;99.90;;;;;;4958277;28;20031;-68
2022/11/13 14:53:37;;;;;;;9.85;6.40;;;11.20;99.90;;;;;;4975527;28;20031;-70
2022/11/13 14:56:10;;;;;;;8.68;5.57;;;11.20;99.90;;;;;;4975718;28;20026;-70
2022/11/13 14:58:46;;;;;;;10.07;6.03;;;11.10;99.90;;;;;;4975753;28;20129;-69
2022/11/13 15:01:17;;;;;;;9.23;6.07;;;11.10;99.90;;;;;;4958269;28;20042;-70
2022/11/13 15:03:47;;;;;;;11.45;5.97;;;11.10;99.90;;;;;;4959350;28;20022;-69
2022/11/13 15:06:19;;;;;;;10.07;6.72;;;11.20;99.90;;;;;;4977980;28;20554;-70
2022/11/13 15:08:46;;;;;;;11.00;6.82;;;11.00;99.90;;;;;;4991698;28;20584;-70
2022/11/13 15:11:13;;;;;;;11.43;7.47;;;11.10;99.90;;;;;;4993467;28;20625;-70
2022/11/13 15:13:39;;;;;;;12.90;8.27;;;11.10;99.90;;;;;;4995124;28;20062;-71
2022/11/13 15:16:05;;;;;;;12.23;7.90;;;11.00;99.90;;;;;;4979764;28;20027;-71
2022/11/13 15:18:31;;;;;;;12.60;8.23;;;10.90;99.90;;;;;;4997572;28;20022;-71
2022/11/13 15:20:57;;;;;;;13.50;8.20;;;10.90;99.90;;;;;;4996248;28;20538;-70
2022/11/13 15:23:24;;;;;;;16.42;9.60;;;10.80;99.90;;;;;;4979344;28;20077;-71
2022/11/13 15:25:50;;;;;;;14.13;8.73;;;10.70;99.90;;;;;;4996967;28;20085;-71
2022/11/13 15:28:16;;;;;;;15.73;10.63;;;10.70;99.90;;;;;;4996958;28;20451;-71
2022/11/13 15:30:42;;;;;;;16.67;10.07;;;10.70;99.90;;;;;;4996051;28;20149;-76
2022/11/13 15:33:15;;;;;;;18.07;10.30;;;10.60;99.90;;;;;;4970550;28;20034;-73
2022/11/13 15:35:41;;;;;;;16.17;10.50;;;10.60;99.90;;;;;;4980390;28;20033;-72
2022/11/13 15:38:11;;;;;;;19.33;10.57;;;10.60;99.90;;;;;;4998678;28;20030;-73
2022/11/13 15:40:37;;;;;;;17.25;10.60;;;10.50;99.90;;;;;;4981435;28;20400;-68
2022/11/13 15:43:03;;;;;;;18.65;11.27;;;10.50;99.90;;;;;;4977977;28;20081;-68
2022/11/13 15:45:28;;;;;;;19.90;11.52;;;10.40;99.90;;;;;;4976033;28;20564;-69
2022/11/13 15:47:54;;;;;;;18.07;10.93;;;10.30;99.90;;;;;;4976972;28;20388;-72
2022/11/13 15:50:19;;;;;;;20.67;13.17;;;10.30;99.90;;;;;;4976299;28;20388;-72
2022/11/13 15:52:48;;;;;;;19.93;11.87;;;10.20;99.90;;;;;;4976845;28;20441;-72
2022/11/13 15:55:26;;;;;;;22.65;12.48;;;10.10;99.90;;;;;;4979943;28;20033;-75
2022/11/13 15:57:52;;;;;;;23.90;14.25;;;10.10;99.90;;;;;;4979007;28;20054;-74
2022/11/13 16:00:23;;;;;;;22.45;13.52;;;10.00;99.90;;;;;;4997742;28;20019;-77
2022/11/13 16:02:50;;;;;;;26.80;15.85;;;9.90;99.90;;;;;;4981992;28;20070;-70
2022/11/13 16:05:17;;;;;;;27.95;16.33;;;9.80;99.90;;;;;;4995857;28;20023;-74
2022/11/13 16:07:42;;;;;;;29.10;16.80;;;9.90;99.90;;;;;;4979947;28;20516;-71
2022/11/13 16:10:09;;;;;;;29.97;16.80;;;9.90;99.90;;;;;;4997341;28;20031;-71
2022/11/13 16:12:34;;;;;;;;;;;9.90;99.90;;;;;;4996149;28;20053;-69
2022/11/13 16:15:00;;;;;;;30.50;18.23;;;9.90;99.90;;;;;;4978087;28;20289;-73
2022/11/13 16:17:26;;;;;;;29.67;17.10;;;9.80;99.90;;;;;;4977961;28;20052;-70
2022/11/13 16:19:54;;;;;;;33.00;17.60;;;9.80;99.90;;;;;;4994610;28;20027;-70
2022/11/13 16:22:24;;;;;;;29.77;17.70;;;9.80;99.90;;;;;;4994451;28;20057;-71
2022/11/13 16:24:51;;;;;;;29.90;16.25;;;9.70;99.90;;;;;;4995628;28;20042;-69
2022/11/13 16:27:27;;;;;;;31.08;17.73;;;9.70;99.90;;;;;;4993236;28;20081;-67
2022/11/13 16:29:53;;;;;;;28.63;16.70;;;9.60;99.90;;;;;;4975207;28;20039;-68
2022/11/13 16:32:19;;;;;;;29.73;17.17;;;9.50;99.90;;;;;;4974602;28;20101;-67
2022/11/13 16:34:45;;;;;;;32.30;17.67;;;9.50;99.90;;;;;;4967197;28;20046;-67
2022/11/13 16:37:18;;;;;;;37.78;19.38;;;9.30;99.90;;;;;;4994113;28;20030;-67
2022/11/13 16:39:44;;;;;;;31.52;17.30;;;9.40;99.90;;;;;;4996813;28;20546;-68
2022/11/13 16:42:11;;;;;;;33.55;18.45;;;9.40;99.90;;;;;;4996070;28;20109;-68
2022/11/13 16:44:37;;;;;;;;;;;9.30;99.90;;;;;;4991852;28;20030;-67
2022/11/13 16:47:19;;;;;;;33.37;17.20;;;9.30;99.90;;;;;;4981357;28;19917;-69
2022/11/13 16:49:44;;;;;;;33.53;18.98;;;9.20;99.90;;;;;;4996461;28;20372;-69
2022/11/13 16:52:10;;;;;;;34.63;18.43;;;9.10;99.90;;;;;;4999138;28;20093;-69
2022/11/13 16:54:35;;;;;;;32.17;17.90;;;9.00;99.90;;;;;;4994206;28;20038;-69
2022/11/13 16:57:01;;;;;;;36.37;19.17;;;9.00;99.90;;;;;;4996813;28;20038;-68
2022/11/13 16:59:26;;;;;;;37.50;18.07;;;9.00;99.90;;;;;;4997483;28;20037;-68
2022/11/13 17:01:55;;;;;;;34.40;19.43;;;8.90;99.90;;;;;;4998035;28;20085;-70
2022/11/13 17:04:21;;;;;;;35.05;18.50;;;8.90;99.90;;;;;;4997206;28;20036;-68
2022/11/13 17:06:46;;;;;;;35.30;20.27;;;9.20;99.90;;;;;;4979419;28;20113;-70
2022/11/13 17:09:13;;;;;;;27.50;15.77;;;9.00;99.90;;;;;;4996994;28;20491;-72
2022/11/13 17:11:38;;;;;;;23.30;13.45;;;8.80;99.90;;;;;;4996582;28;20033;-73
2022/11/13 17:14:04;;;;;;;22.17;13.70;;;8.50;99.90;;;;;;4981427;28;20030;-74
2022/11/13 17:16:31;;;;;;;19.40;12.73;;;8.30;99.90;;;;;;4997449;28;20041;-68
2022/11/13 17:18:57;;;;;;;19.15;12.07;;;8.10;99.90;;;;;;4996436;28;20277;-69
2022/11/13 17:21:25;;;;;;;20.35;12.35;;;8.00;99.90;;;;;;4979460;28;20034;-70
2022/11/13 17:23:59;;;;;;;18.73;12.07;;;7.90;99.90;;;;;;4997649;28;20029;-70
2022/11/13 17:26:26;;;;;;;17.52;12.30;;;7.80;99.90;;;;;;5011715;28;20037;-70
2022/11/13 17:28:52;;;;;;;;;;;7.70;99.90;;;;;;4996029;28;20471;-68
2022/11/13 17:31:18;;;;;;;20.85;12.45;;;7.60;99.90;;;;;;5013204;28;19913;-67
2022/11/13 17:33:44;;;;;;;20.88;13.43;;;7.50;99.90;;;;;;5013674;28;20026;-68
2022/11/13 17:36:11;;;;;;;21.60;14.17;;;7.40;99.90;;;;;;5013082;28;20026;-67
2022/11/13 17:38:37;;;;;;;20.60;14.85;;;7.30;99.90;;;;;;5012633;28;20041;-66
2022/11/13 17:41:12;;;;;;;24.38;16.83;;;7.20;99.90;;;;;;5013190;28;20022;-69
2022/11/13 17:43:38;;;;;;;29.05;17.20;;;7.10;99.90;;;;;;5006033;28;20042;-69
2022/11/13 17:46:05;;;;;;;25.10;17.48;;;7.00;99.90;;;;;;5007339;28;20207;-73
2022/11/13 17:48:34;;;;;;;27.45;18.08;;;6.90;99.90;;;;;;5008944;28;20125;-67
2022/11/13 17:51:02;;;;;;;26.05;16.60;;;7.10;99.90;;;;;;4984112;28;20038;-66
2022/11/13 17:53:28;;;;;;;30.63;19.13;;;7.20;99.90;;;;;;4989838;28;20085;-66
2022/11/13 17:55:59;;;;;;;30.75;19.05;;;7.00;99.90;;;;;;4983434;28;20027;-66
2022/11/13 17:58:26;;;;;;;33.00;20.52;;;7.00;99.90;;;;;;4977235;28;20037;-66
2022/11/13 18:00:53;;;;;;;36.45;20.65;;;7.00;99.90;;;;;;4977066;28;20033;-65
2022/11/13 18:03:19;;;;;;;40.25;21.83;;;7.00;99.90;;;;;;4976920;28;20329;-66